< Cyclone 201808 2018 Season Cyclone 201817 >
Cyclone 201809 (Joyce)
General InformationTrack Information on Google MapsDetailed Wind InformationList of All Images || ResourceGoogle EarthGE AnimationAtom FeedGeoJSON
Detalied Best Track (Time Zone = UTC)
Year Month Day Hour Lat. Long. Pressure (hPa) Wind (kt) Class Image Chart
2018 1 7 00 -12.9 129.5 1008 15 2 Image --
2018 1 7 06 -13.2 129.1 1006 15 2 Image --
2018 1 7 12 -13.4 128.7 1006 15 2 Image --
2018 1 7 18 -13.7 128.3 1006 15 2 Image --
2018 1 8 00 -13.9 127.9 1005 20 2 Image --
2018 1 8 06 -15.3 127.3 1005 20 2 Image --
2018 1 8 12 -15.7 126.8 1005 20 2 Image --
2018 1 8 18 -15.7 126.3 1005 20 2 Image --
2018 1 9 00 -16.1 125.1 1004 20 2 Image --
2018 1 9 06 -16.3 124.5 1000 20 2 Image --
2018 1 9 12 -16.4 124.0 1000 20 2 Image --
2018 1 9 18 -16.4 123.4 1000 20 2 Image --
2018 1 10 00 -16.1 123.1 997 25 2 Image --
2018 1 10 06 -16.0 122.9 996 25 2 Image --
2018 1 10 12 -16.1 122.6 994 30 2 Image --
2018 1 10 18 -16.6 121.9 995 30 2 Image --
2018 1 11 00 -16.7 121.6 993 35 3 Image --
2018 1 11 06 -17.3 121.7 986 45 3 Image --
2018 1 11 12 -18.0 121.4 982 50 4 Image --
2018 1 11 18 -18.5 121.7 980 45 3 Image --
2018 1 12 00 -19.1 121.3 978 45 3 Image --
2018 1 12 06 -19.6 120.7 978 45 3 Image --
2018 1 12 12 -20.0 119.9 975 45 3 Image --
2018 1 12 18 -20.5 119.4 990 30 2 Image --
2018 1 13 00 -21.2 118.6 995 25 2 Image --
2018 1 13 06 -22.1 118.0 998 25 2 Image --
2018 1 13 12 -23.2 117.2 1001 20 2 Image --
2018 1 13 18 -24.4 116.1 1001 20 2 Image --
2018 1 14 00 -25.3 115.5 1001 20 2 Image --
2018 1 14 06 -26.1 115.1 1001 20 2 Image --
2018 1 14 12 -26.7 115.2 1002 20 2 Image --
2018 1 14 18 -27.6 114.3 1002 20 2 Image --
2018 1 15 00 -28.4 113.4 1002 20 2 Image --
2018 1 15 06 -29.1 113.3 1002 20 2 Image --
< Cyclone 201808 2018 Season Cyclone 201817 >

Help